createdAt,value
2022-09-13T00:04:14.953Z,2.20
2022-09-13T00:09:15.708Z,2.15
2022-09-13T00:14:16.495Z,2.42
2022-09-13T00:19:17.393Z,2.10
2022-09-13T00:24:18.263Z,2.45
2022-09-13T00:29:19.753Z,2.12
2022-09-13T00:34:21.074Z,2.50
2022-09-13T00:39:22.155Z,1.87
2022-09-13T00:44:59.142Z,2.40
2022-09-13T00:50:18.219Z,1.98
2022-09-13T00:55:34.426Z,2.30
2022-09-13T01:00:36.756Z,1.95
2022-09-13T01:05:45.770Z,2.17
2022-09-13T01:10:48.562Z,2.05
2022-09-13T01:15:49.482Z,2.12
2022-09-13T01:25:50.179Z,2.03
2022-09-13T01:31:07.221Z,1.90
2022-09-13T01:38:08.171Z,2.33
2022-09-13T01:43:25.635Z,2.55
2022-09-13T01:50:06.940Z,2.00
2022-09-13T01:56:45.367Z,1.80
2022-09-13T02:01:57.004Z,1.80
2022-09-13T02:07:08.060Z,1.92
2022-09-13T02:12:26.931Z,2.15
2022-09-13T02:17:33.430Z,1.35
2022-09-13T02:22:41.178Z,1.50
2022-09-13T02:27:47.526Z,1.83
2022-09-13T02:33:18.080Z,1.60
2022-09-13T02:38:34.559Z,1.48
2022-09-13T02:43:43.431Z,1.40
2022-09-13T02:48:58.194Z,1.50
2022-09-13T02:54:51.693Z,1.65
2022-09-13T02:59:52.524Z,1.70
2022-09-13T03:04:53.590Z,1.25
2022-09-13T03:10:00.846Z,1.48
2022-09-13T03:15:52.451Z,1.30
2022-09-13T03:21:39.468Z,1.62
2022-09-13T03:27:03.786Z,1.40
2022-09-13T03:32:43.830Z,1.40
2022-09-13T03:38:56.349Z,1.30
2022-09-13T03:44:05.306Z,1.60
2022-09-13T03:49:11.836Z,1.70
2022-09-13T03:54:22.532Z,1.77
2022-09-13T03:59:23.758Z,1.30
2022-09-13T04:04:25.929Z,1.20
2022-09-13T04:09:26.925Z,1.35
2022-09-13T04:14:27.687Z,1.37
2022-09-13T04:19:28.782Z,1.15
2022-09-13T04:24:30.606Z,1.15
2022-09-13T04:29:31.807Z,1.30
2022-09-13T04:34:32.627Z,1.30
2022-09-13T04:39:33.452Z,1.17
2022-09-13T04:44:34.653Z,1.52
2022-09-13T04:49:35.425Z,1.20
2022-09-13T04:54:37.382Z,1.83
2022-09-13T04:59:38.209Z,1.52
2022-09-13T05:04:39.431Z,1.83
2022-09-13T05:09:40.250Z,1.10
2022-09-13T05:14:41.076Z,1.27
2022-09-13T05:19:41.825Z,1.25
2022-09-13T05:24:42.613Z,2.15
2022-09-13T05:29:43.371Z,1.50
2022-09-13T05:34:44.118Z,1.98
2022-09-13T05:40:07.785Z,3.08
2022-09-13T05:45:11.517Z,2.92
2022-09-13T05:50:26.542Z,3.62
2022-09-13T05:55:34.915Z,3.58
2022-09-13T06:00:35.786Z,3.28
2022-09-13T06:05:36.737Z,3.05
2022-09-13T06:10:37.635Z,2.60
2022-09-13T06:15:43.134Z,2.20
2022-09-13T06:20:44.721Z,2.30
2022-09-13T06:25:45.856Z,2.10
2022-09-13T06:30:46.704Z,2.20
2022-09-13T06:35:47.545Z,2.50
2022-09-13T06:40:48.423Z,2.40
2022-09-13T06:45:49.948Z,1.90
2022-09-13T06:50:50.942Z,3.47
2022-09-13T06:56:04.210Z,2.35
2022-09-13T07:01:14.261Z,2.08
2022-09-13T07:06:22.553Z,4.75
2022-09-13T07:11:26.507Z,2.97
2022-09-13T07:16:30.332Z,2.42
2022-09-13T07:21:32.504Z,2.97
2022-09-13T07:26:33.750Z,2.50
2022-09-13T07:31:39.746Z,2.25
2022-09-13T07:36:41.276Z,2.75
2022-09-13T07:41:43.019Z,1.83
2022-09-13T07:46:43.943Z,2.72
2022-09-13T07:51:45.592Z,2.47
2022-09-13T07:56:49.345Z,2.45
2022-09-13T08:01:51.424Z,2.33
2022-09-13T08:06:52.515Z,2.87
2022-09-13T08:11:53.515Z,3.17
2022-09-13T08:16:56.278Z,2.80
2022-09-13T08:21:57.039Z,3.08
2022-09-13T08:26:57.833Z,2.25
2022-09-13T08:31:58.552Z,2.35
2022-09-13T08:36:59.336Z,2.12
2022-09-13T08:42:11.039Z,2.30
2022-09-13T08:54:02.562Z,2.83
2022-09-13T08:59:20.566Z,2.70
2022-09-13T09:05:55.162Z,3.25
2022-09-13T09:11:01.078Z,2.58
2022-09-13T09:22:52.616Z,2.08
2022-09-13T09:27:54.270Z,3.30
2022-09-13T09:36:24.295Z,4.45
2022-09-13T09:41:31.902Z,3.37
2022-09-13T09:46:40.498Z,4.20
2022-09-13T09:51:41.332Z,4.03
2022-09-13T09:56:53.549Z,4.70
2022-09-13T10:01:56.753Z,4.70
2022-09-13T10:07:23.569Z,3.50
2022-09-13T10:12:29.334Z,4.30
2022-09-13T10:17:30.741Z,3.22
2022-09-13T10:22:32.850Z,3.50
2022-09-13T10:27:42.203Z,3.50
2022-09-13T10:32:54.155Z,2.80
2022-09-13T10:37:55.809Z,2.75
2022-09-13T10:42:58.916Z,2.55
2022-09-13T10:48:19.217Z,3.10
2022-09-13T10:53:38.329Z,2.60
2022-09-13T10:58:39.196Z,1.80
2022-09-13T11:04:04.189Z,1.60
2022-09-13T11:09:21.373Z,1.20
2022-09-13T11:17:51.678Z,1.20
2022-09-13T11:23:22.303Z,1.10
2022-09-13T11:28:49.672Z,1.50
2022-09-13T11:35:43.674Z,1.27
2022-09-13T11:49:29.112Z,2.10
2022-09-13T11:54:51.913Z,2.00
2022-09-13T11:59:58.868Z,2.08
2022-09-13T12:05:30.020Z,1.70
2022-09-13T12:10:46.464Z,3.70
2022-09-13T12:15:52.135Z,3.28
2022-09-13T12:20:58.675Z,2.60
2022-09-13T12:26:16.064Z,2.45
2022-09-13T12:31:22.005Z,2.08
2022-09-13T12:38:46.358Z,1.48
2022-09-13T12:55:47.579Z,1.25
2022-09-13T13:01:16.274Z,1.37
2022-09-13T13:06:38.739Z,1.37
2022-09-13T13:11:46.977Z,1.20
2022-09-13T13:16:48.943Z,1.05
2022-09-13T13:21:49.736Z,1.20
2022-09-13T13:26:57.757Z,1.48
2022-09-13T13:32:11.596Z,1.50
2022-09-13T13:37:32.726Z,1.20
2022-09-13T13:42:37.524Z,1.10
2022-09-13T13:47:53.325Z,1.20
2022-09-13T13:53:04.736Z,0.90
2022-09-13T13:58:25.504Z,1.08
2022-09-13T14:05:08.075Z,1.20
2022-09-13T14:10:29.699Z,0.82
2022-09-13T14:15:58.809Z,0.82
2022-09-13T14:21:23.566Z,1.00
2022-09-13T14:26:24.500Z,1.08
2022-09-13T14:31:25.495Z,1.00
2022-09-13T14:36:26.890Z,0.88
2022-09-13T14:41:37.300Z,1.10
2022-09-13T14:46:42.546Z,1.08
2022-09-13T14:51:55.705Z,1.10
2022-09-13T14:57:02.076Z,1.10
2022-09-13T15:02:15.621Z,1.12
2022-09-13T15:07:26.801Z,1.20
2022-09-13T15:12:27.750Z,1.02
2022-09-13T15:17:28.834Z,1.00
2022-09-13T15:22:32.542Z,1.00
2022-09-13T15:27:44.870Z,1.08
2022-09-13T15:32:45.779Z,0.95
2022-09-13T15:37:58.562Z,1.50
2022-09-13T15:42:59.823Z,1.55
2022-09-13T15:48:01.058Z,1.60
2022-09-13T15:53:04.767Z,2.12
2022-09-13T15:58:05.554Z,1.27
2022-09-13T16:03:08.488Z,1.48
2022-09-13T16:08:11.111Z,1.42
2022-09-13T16:13:12.053Z,1.70
2022-09-13T16:18:16.291Z,1.60
2022-09-13T16:23:17.350Z,1.50
2022-09-13T16:28:21.243Z,2.35
2022-09-13T16:33:22.225Z,1.70
2022-09-13T16:38:23.067Z,1.65
2022-09-13T16:43:23.824Z,1.80
2022-09-13T16:48:25.036Z,2.10
2022-09-13T16:53:25.781Z,2.00
2022-09-13T16:58:26.550Z,1.87
2022-09-13T17:03:27.351Z,2.50
2022-09-13T17:08:28.910Z,2.12
2022-09-13T17:13:29.672Z,1.42
2022-09-13T17:18:30.903Z,1.75
2022-09-13T17:23:31.868Z,1.30
2022-09-13T17:28:34.687Z,1.23
2022-09-13T17:38:37.421Z,1.30
2022-09-13T17:43:39.737Z,1.17
2022-09-13T17:48:41.486Z,1.20
2022-09-13T17:53:45.401Z,1.40
2022-09-13T17:58:46.701Z,1.02
2022-09-13T18:03:47.616Z,1.35
2022-09-13T18:08:52.604Z,1.00
2022-09-13T18:13:53.357Z,1.60
2022-09-13T18:18:55.185Z,1.65
2022-09-13T18:23:58.263Z,1.30
2022-09-13T18:29:02.628Z,1.40
2022-09-13T18:34:07.242Z,1.83
2022-09-13T18:39:14.968Z,1.52
2022-09-13T18:44:17.146Z,1.48
2022-09-13T18:49:18.937Z,1.70
2022-09-13T18:54:19.952Z,1.45
2022-09-13T18:59:20.742Z,1.40
2022-09-13T19:04:21.621Z,1.83
2022-09-13T19:09:23.247Z,1.48
2022-09-13T19:14:26.888Z,1.48
2022-09-13T19:19:30.359Z,1.95
2022-09-13T19:24:31.119Z,2.08
2022-09-13T19:29:31.964Z,1.70
2022-09-13T19:34:32.716Z,1.50
2022-09-13T19:39:33.710Z,1.60
2022-09-13T19:44:34.461Z,1.67
2022-09-13T19:49:35.240Z,1.45
2022-09-13T19:54:35.986Z,1.70
2022-09-13T19:59:36.787Z,1.40
2022-09-13T20:04:37.566Z,1.48
2022-09-13T20:09:40.756Z,1.50
2022-09-13T20:14:41.486Z,1.30
2022-09-13T20:19:49.135Z,1.87
2022-09-13T20:24:50.888Z,1.70
2022-09-13T20:29:51.667Z,1.60
2022-09-13T20:34:52.533Z,2.03
2022-09-13T20:39:53.533Z,1.98
2022-09-13T20:44:54.391Z,2.42
2022-09-13T20:49:55.200Z,2.60
2022-09-13T20:54:56.485Z,2.35
2022-09-13T20:59:57.253Z,2.92
2022-09-13T21:04:59.005Z,2.87
2022-09-13T21:10:00.279Z,3.95
2022-09-13T21:15:01.304Z,3.20
2022-09-13T21:20:02.393Z,1.92
2022-09-13T21:25:04.032Z,3.40
2022-09-13T21:30:07.949Z,2.17
2022-09-13T21:35:08.678Z,2.00
2022-09-13T21:40:10.143Z,2.87
2022-09-13T21:45:11.031Z,2.53
2022-09-13T21:50:11.781Z,2.40
2022-09-13T21:55:12.551Z,2.12
2022-09-13T22:00:14.442Z,2.55
2022-09-13T22:05:15.304Z,2.25
2022-09-13T22:10:16.418Z,2.40
2022-09-13T22:15:17.359Z,2.53
2022-09-13T22:20:18.924Z,1.80
2022-09-13T22:25:19.638Z,2.35
2022-09-13T22:30:20.557Z,2.12
2022-09-13T22:35:21.314Z,2.50
2022-09-13T22:40:22.275Z,2.40
2022-09-13T22:45:23.052Z,2.20
2022-09-13T22:50:23.897Z,2.15
2022-09-13T22:55:24.866Z,2.00
2022-09-13T23:00:25.623Z,1.62
2022-09-13T23:05:26.575Z,2.10
2022-09-13T23:10:27.457Z,2.17
2022-09-13T23:15:28.212Z,2.10
2022-09-13T23:20:29.252Z,2.40
2022-09-13T23:25:32.174Z,3.37
2022-09-13T23:35:36.154Z,2.85
2022-09-13T23:40:37.010Z,2.80
2022-09-13T23:45:37.856Z,2.25
2022-09-13T23:50:38.772Z,2.50
2022-09-13T23:55:39.522Z,2.58
